Songa Pride — V7LM8 — position and weather

sailwx.info

Track history (hours):
 
Tides and Currents Weather Stations Pressure Air Temp Water Temp Dewpoint Dewpoint Depression Visibility Wind Speed Wind Dir Waves Ship Positions

Songa Pride

Last reported at 2018-Jun-11 11:49 UTC. Time now 2018-Jun-20 16:58 UTC.
Position N 48°31' W 126°22'.
Warning: this ship's position is 9 days out of date.

Length 184 m; draft 12.4 m.

Type: Ship. MMSI: 538006302.

Date/timePositionNaut miles runAvg speedWind from/ knotsBaromVisibWave heightAir tempDewpointWater temp
2018-Jun-11 11:49N 48°31' W 126°22'413.0
2018-Jun-11 11:29N 48°31' W 126°16'612.8
2018-Jun-11 11:00N 48°31' W 126°07'612.8
2018-Jun-11 10:30N 48°31' W 125°57'712.9
2018-Jun-11 10:00N 48°31' W 125°47'612.9
2018-Jun-11 09:30N 48°31' W 125°38'712.9
2018-Jun-11 09:00N 48°31' W 125°28'612.7
2018-Jun-11 08:30N 48°31' W 125°18'712.6
2018-Jun-11 07:59N 48°31' W 125°08'612.6
2018-Jun-11 07:30N 48°31' W 124°59'612.9
2018-Jun-11 07:00N 48°31' W 124°49'612.3
2018-Jun-11 06:30N 48°30' W 124°40'612.4
2018-Jun-11 06:00N 48°27' W 124°32'612.4
2018-Jun-11 05:30N 48°25' W 124°23'612.8
2018-Jun-11 05:00N 48°23' W 124°14'612.8
2018-Jun-11 04:30N 48°20' W 124°05'612.6
2018-Jun-11 04:00N 48°18' W 123°56'2310.8
2018-Jun-11 01:54N 48°23' W 123°23'4 9.5
2018-Jun-11 01:30N 48°23' W 123°18'5 9.5
2018-Jun-11 01:00N 48°26' W 123°12'510.7
2018-Jun-11 00:30N 48°31' W 123°13'5 9.9
2018-Jun-10 23:59N 48°37' W 123°14'5 9.9
2018-Jun-10 23:30N 48°41' W 123°15'5 9.5
2018-Jun-10 23:00N 48°44' W 123°09'610.1
2018-Jun-10 22:27N 48°47' W 123°02'5 9.0
2018-Jun-10 21:56N 48°51' W 123°04'511.6
2018-Jun-10 21:29N 48°55' W 123°10'510.8
2018-Jun-10 21:00N 48°58' W 123°16'612.2
2018-Jun-10 20:29N 49°03' W 123°22'612.3
2018-Jun-10 20:00N 49°09' W 123°23'912.3
2018-Jun-10 19:17N 49°17' W 123°19'310.2
2018-Jun-10 18:58N 49°19' W 123°14'2 3.3
2018-Jun-10 18:30N 49°19' W 123°12'3 5.5
2018-Jun-10 18:00N 49°19' W 123°08'4 8.5
2018-Jun-10 17:29N 49°18' W 123°01'2 3.6
2018-Jun-10 17:00N 49°18' W 122°59'0 0.7
2018-Jun-10 16:30N 49°18' W 122°58'0 0.0
2018-Jun-10 15:57N 49°18' W 122°58'0 0.0
2018-Jun-10 15:30N 49°18' W 122°58'0 0.0
2018-Jun-10 15:00N 49°18' W 122°58'0 0.0
2018-Jun-10 14:12N 49°18' W 122°58'0 0.0
2018-Jun-10 13:27N 49°18' W 122°58'0 0.0
2018-Jun-10 13:00N 49°18' W 122°58'0 0.0
2018-Jun-10 12:30N 49°18' W 122°58'0 0.0
2018-Jun-10 12:00N 49°18' W 122°58'0 0.0
2018-Jun-10 11:30N 49°18' W 122°58'0 0.1
2018-Jun-10 11:00N 49°18' W 122°58'0 0.0
2018-Jun-10 10:30N 49°18' W 122°58'0 0.2
2018-Jun-10 10:00N 49°18' W 122°58'0 0.4
2018-Jun-10 09:30N 49°18' W 122°58'1 1.6
2018-Jun-10 09:00N 49°18' W 122°57'2 4.6
2018-Jun-10 08:31N 49°18' W 122°53'1 1.4
2018-Jun-10 07:50N 49°17' W 122°52'0 0.0
2018-Jun-10 07:20N 49°17' W 122°52'0 0.0
2018-Jun-10 06:44N 49°17' W 122°52'0 0.0
2018-Jun-10 06:26N 49°17' W 122°52'0 0.0
2018-Jun-10 05:56N 49°17' W 122°52'0 0.0
2018-Jun-10 05:26N 49°17' W 122°52'0 0.0
2018-Jun-10 04:50N 49°17' W 122°52'0 0.0
2018-Jun-10 04:08N 49°17' W 122°52'0 0.0
2018-Jun-10 03:56N 49°17' W 122°52'0 0.0
2018-Jun-10 03:20N 49°17' W 122°52'0 0.0
2018-Jun-10 01:32N 49°17' W 122°52'0 0.0
2018-Jun-10 01:20N 49°17' W 122°52'0 0.0
2018-Jun-10 00:50N 49°17' W 122°52'0 0.0
2018-Jun-10 00:26N 49°17' W 122°52'0 0.0
2018-Jun-09 23:38N 49°17' W 122°52'0 0.0
2018-Jun-09 23:08N 49°17' W 122°52'0 0.0
2018-Jun-09 22:38N 49°17' W 122°52'0 0.0
2018-Jun-09 22:08N 49°17' W 122°52'0 0.0
2018-Jun-09 21:44N 49°17' W 122°52'0 0.0
2018-Jun-09 21:20N 49°17' W 122°52'0 0.0
2018-Jun-09 20:56N 49°17' W 122°52'0 0.0
2018-Jun-09 20:26N 49°17' W 122°52'0 0.0
2018-Jun-09 19:02N 49°17' W 122°52'0 0.0
2018-Jun-09 18:38N 49°17' W 122°52'0 0.0
2018-Jun-09 18:26N 49°17' W 122°52'0 0.0
2018-Jun-09 17:50N 49°17' W 122°52'0 0.0
2018-Jun-09 17:20N 49°17' W 122°52'0 0.0
2018-Jun-09 16:56N 49°17' W 122°52'0 0.0
2018-Jun-09 16:26N 49°17' W 122°52'0 0.0
2018-Jun-09 14:44N 49°17' W 122°52'0 0.0
2018-Jun-09 14:26N 49°17' W 122°52'0 0.0
2018-Jun-09 13:50N 49°17' W 122°52'0 0.0
2018-Jun-09 13:14N 49°17' W 122°52'0 0.0
2018-Jun-09 12:56N 49°17' W 122°52'0 0.0
2018-Jun-09 11:44N 49°17' W 122°52'0 0.0
2018-Jun-09 11:26N 49°17' W 122°52'0 0.0
2018-Jun-09 10:26N 49°17' W 122°52'0 0.0
2018-Jun-09 09:50N 49°17' W 122°52'0 0.0
2018-Jun-09 09:14N 49°17' W 122°52'0 0.0
2018-Jun-09 08:56N 49°17' W 122°52'0 0.0
2018-Jun-09 08:20N 49°17' W 122°52'0 0.0
2018-Jun-09 07:56N 49°17' W 122°52'0 0.0
2018-Jun-09 07:26N 49°17' W 122°52'0 0.0
2018-Jun-09 06:50N 49°17' W 122°52'0 0.0
2018-Jun-09 06:08N 49°17' W 122°52'0 0.0
2018-Jun-09 05:08N 49°17' W 122°52'0 0.0
2018-Jun-09 04:56N 49°17' W 122°52'0 0.0
2018-Jun-09 04:14N 49°17' W 122°52'0 0.0
2018-Jun-09 03:56N 49°17' W 122°52'0 0.0
2018-Jun-09 03:26N 49°17' W 122°52'0 0.0
2018-Jun-09 02:56N 49°17' W 122°52'0 0.0
2018-Jun-09 02:26N 49°17' W 122°52'0 0.0
2018-Jun-09 01:50N 49°17' W 122°52'0 0.0
2018-Jun-09 01:26N 49°17' W 122°52'0 0.0
2018-Jun-09 00:50N 49°17' W 122°52'0 0.0
2018-Jun-09 00:20N 49°17' W 122°52'0 0.0
2018-Jun-08 23:44N 49°17' W 122°52'0 0.0
2018-Jun-08 23:26N 49°17' W 122°52'0 0.0
2018-Jun-08 22:50N 49°17' W 122°52'0 0.0
2018-Jun-08 20:44N 49°17' W 122°52'0 0.0
2018-Jun-08 20:26N 49°17' W 122°52'0 0.0
2018-Jun-08 19:56N 49°17' W 122°52'0 0.0
2018-Jun-08 19:20N 49°17' W 122°52'0 0.0
2018-Jun-08 18:56N 49°17' W 122°52'0 0.0
2018-Jun-08 18:20N 49°17' W 122°52'0 0.0
2018-Jun-08 17:56N 49°17' W 122°52'0 0.0
2018-Jun-08 17:26N 49°17' W 122°52'0 0.0
2018-Jun-08 16:50N 49°17' W 122°52'0 0.0
2018-Jun-08 16:26N 49°17' W 122°52'0 0.0
2018-Jun-08 15:08N 49°17' W 122°52'0 0.0
2018-Jun-08 14:56N 49°17' W 122°52'0 0.0
2018-Jun-08 14:26N 49°17' W 122°52'0 0.0
2018-Jun-08 13:50N 49°17' W 122°52'0 0.0
2018-Jun-08 13:26N 49°17' W 122°52'0 0.0
2018-Jun-08 12:56N 49°17' W 122°52'0 0.0
2018-Jun-08 11:50N 49°17' W 122°52'0 0.0
2018-Jun-08 11:20N 49°17' W 122°52'0 0.0
2018-Jun-08 10:56N 49°17' W 122°52'0 0.0
2018-Jun-08 10:20N 49°17' W 122°52'0 0.0
2018-Jun-08 09:44N 49°17' W 122°52'0 0.0
2018-Jun-08 09:20N 49°17' W 122°52'0 0.0
2018-Jun-08 08:56N 49°17' W 122°52'0 0.0
2018-Jun-08 08:20N 49°17' W 122°52'0 0.0
2018-Jun-08 07:56N 49°17' W 122°52'0 0.0
2018-Jun-08 06:32N 49°17' W 122°52'0 0.0
2018-Jun-08 06:14N 49°17' W 122°52'0 0.0
2018-Jun-08 04:32N 49°17' W 122°52'0 0.0
2018-Jun-08 04:20N 49°17' W 122°52'0 0.0
2018-Jun-08 03:56N 49°17' W 122°52'0 0.0
2018-Jun-08 03:20N 49°17' W 122°52'0 0.0
2018-Jun-08 02:56N 49°17' W 122°52'0 0.0
2018-Jun-08 02:26N 49°17' W 122°52'0 0.0
2018-Jun-08 01:56N 49°17' W 122°52'0 0.0
2018-Jun-08 01:08N 49°17' W 122°52'0 0.0
2018-Jun-08 00:02N 49°17' W 122°52'0 0.0
2018-Jun-07 23:56N 49°17' W 122°52'0 0.0
2018-Jun-07 21:38N 49°17' W 122°52'0 0.0
2018-Jun-07 21:26N 49°17' W 122°52'0 0.0
2018-Jun-07 20:56N 49°17' W 122°52'0 0.0
2018-Jun-07 20:26N 49°17' W 122°52'0 0.0
2018-Jun-07 19:56N 49°17' W 122°52'0 0.0
2018-Jun-07 19:26N 49°17' W 122°52'0 0.0
2018-Jun-07 18:56N 49°17' W 122°52'0 0.0
2018-Jun-07 18:26N 49°17' W 122°52'0 0.0
2018-Jun-07 17:56N 49°17' W 122°52'0 0.0
2018-Jun-07 17:26N 49°17' W 122°52'0 0.0
2018-Jun-07 16:50N 49°17' W 122°52'0 0.0
2018-Jun-07 16:20N 49°17' W 122°52'0 0.0
2018-Jun-07 15:56N 49°17' W 122°52'0 0.0
2018-Jun-07 15:14N 49°17' W 122°52'0 0.0
2018-Jun-07 14:56N 49°17' W 122°52'0 0.0
2018-Jun-07 14:26N 49°17' W 122°52'0 0.0
2018-Jun-07 13:56N 49°17' W 122°52'0 0.0
2018-Jun-07 13:08N 49°17' W 122°52'0 0.0
2018-Jun-07 12:56N 49°17' W 122°52'0 0.0
2018-Jun-07 12:26N 49°17' W 122°52'0 0.0
2018-Jun-07 11:44N 49°17' W 122°52'0 0.0
2018-Jun-07 11:26N 49°17' W 122°52'0 0.0
2018-Jun-07 10:56N 49°17' W 122°52'0 0.0
2018-Jun-07 10:14N 49°17' W 122°52'0 0.0
2018-Jun-07 09:38N 49°17' W 122°52'0 0.0
2018-Jun-07 09:26N 49°17' W 122°52'0 0.0
2018-Jun-07 09:00N 49°17' W 122°52'2 3.2
2018-Jun-07 08:29N 49°18' W 122°55'4 7.3
2018-Jun-07 08:00N 49°18' W 123°00'3 5.2
2018-Jun-07 07:30N 49°18' W 123°04'4 7.6
2018-Jun-07 07:00N 49°19' W 123°10'3 6.3
2018-Jun-07 06:30N 49°18' W 123°14'3 5.9
2018-Jun-07 06:00N 49°17' W 123°18'4 7.2
2018-Jun-07 05:30N 49°13' W 123°19'4 8.1
2018-Jun-07 05:00N 49°09' W 123°20'610.3
2018-Jun-07 04:27N 49°04' W 123°20'512.3
2018-Jun-07 04:00N 48°60' W 123°14'612.2
2018-Jun-07 03:30N 48°55' W 123°07'714.5
2018-Jun-07 03:00N 48°50' W 123°01'612.9
2018-Jun-07 02:30N 48°44' W 123°06'713.7
2018-Jun-07 02:00N 48°41' W 123°15'714.0
2018-Jun-07 01:30N 48°34' W 123°12'612.9
2018-Jun-07 01:01N 48°28' W 123°10'612.5
2018-Jun-07 00:30N 48°23' W 123°15'510.5
2018-Jun-07 00:00N 48°21' W 123°23'1 0.2
2018-Jun-06 19:42N 48°20' W 123°22'0 1.4
2018-Jun-06 19:22N 48°21' W 123°22'2210.5
2018-Jun-06 17:17N 48°14' W 123°53'413.1
2018-Jun-06 16:57N 48°15' W 123°59'613.4
2018-Jun-06 16:30N 48°17' W 124°07'713.5
2018-Jun-06 16:00N 48°20' W 124°17'713.3
2018-Jun-06 15:30N 48°23' W 124°26'713.3
2018-Jun-06 15:00N 48°26' W 124°35'612.9
2018-Jun-06 14:31N 48°28' W 124°44'713.4
2018-Jun-06 14:00N 48°28' W 124°54'713.2
2018-Jun-06 13:30N 48°24' W 125°02'815.5
2018-Jun-06 13:00N 48°17' W 125°06'1115.0
2018-Jun-06 12:18N 48°08' W 125°13'414.6
2018-Jun-06 12:00N 48°04' W 125°15'7513.6
2018-Jun-06 06:29N 46°49' W 125°25'612.5
2018-Jun-06 06:00N 46°43' W 125°26'612.3
2018-Jun-06 05:30N 46°37' W 125°26'710.3
2018-Jun-06 04:52N 46°30' W 125°26'610.3
2018-Jun-06 04:17N 46°34' W 125°20'4 9.8
2018-Jun-06 03:51N 46°36' W 125°15'310.0
2018-Jun-06 03:30N 46°39' W 125°11'7 9.9
2018-Jun-06 02:50N 46°43' W 125°03'3 9.6
2018-Jun-06 02:30N 46°45' W 125°00'5 9.2
2018-Jun-06 01:59N 46°48' W 124°55'5 9.5
2018-Jun-06 01:30N 46°51' W 124°50'5 9.4
2018-Jun-06 01:00N 46°54' W 124°44'5 9.5
2018-Jun-06 00:30N 46°56' W 124°38'712.6
2018-Jun-05 23:56N 46°55' W 124°28'613.0
2018-Jun-05 23:30N 46°54' W 124°20'510.2
2018-Jun-05 23:01N 46°52' W 124°12'4 7.3
2018-Jun-05 22:30N 46°55' W 124°08'11 0.3
2018-Jun-04 11:51N 46°58' W 123°53'3 7.2
2018-Jun-04 11:29N 46°58' W 123°57'3 7.1
2018-Jun-04 11:00N 46°56' W 124°01'5 9.4
2018-Jun-04 10:30N 46°55' W 124°08'611.1
2018-Jun-04 10:00N 46°53' W 124°15'0 0.9
2018-Jun-04 09:31N 46°53' W 124°16'1 1.9
2018-Jun-04 09:01N 46°54' W 124°16'3 6.9
2018-Jun-04 08:31N 46°54' W 124°21'611.7
2018-Jun-04 08:00N 46°55' W 124°30'611.5
2018-Jun-04 07:30N 46°55' W 124°38'611.4
2018-Jun-04 06:59N 46°56' W 124°47'510.9
2018-Jun-04 06:31N 46°57' W 124°54'611.1
2018-Jun-04 06:00N 47°03' W 124°54'8012.8
2018-Jun-03 23:47N 48°21' W 125°11'412.8
2018-Jun-03 23:28N 48°25' W 125°07'712.5
2018-Jun-03 22:53N 48°31' W 125°01'512.0
2018-Jun-03 22:30N 48°31' W 124°54'713.2
2018-Jun-03 22:00N 48°31' W 124°44'713.4
2018-Jun-03 21:30N 48°28' W 124°35'713.5
2018-Jun-03 21:00N 48°26' W 124°26'814.3
2018-Jun-03 20:28N 48°23' W 124°15'714.4
2018-Jun-03 20:00N 48°20' W 124°06'714.2
2018-Jun-03 19:30N 48°17' W 123°56'714.4
2018-Jun-03 18:59N 48°16' W 123°44'1612.5
2018-Jun-03 17:44N 48°23' W 123°23'2 7.1
2018-Jun-03 17:30N 48°23' W 123°21'612.5
2018-Jun-03 17:00N 48°25' W 123°12'815.5
2018-Jun-03 16:30N 48°33' W 123°13'815.6
2018-Jun-03 16:00N 48°40' W 123°15'712.9
2018-Jun-03 15:26N 48°45' W 123°07'610.4
2018-Jun-03 14:53N 48°50' W 123°02'514.0
2018-Jun-03 14:30N 48°54' W 123°08'713.8
2018-Jun-03 14:00N 48°59' W 123°16'713.8
2018-Jun-03 13:31N 49°03' W 123°23'712.9
2018-Jun-03 13:00N 49°10' W 123°23'714.1
2018-Jun-03 12:30N 49°17' W 123°20'713.0
2018-Jun-03 12:00N 49°19' W 123°11'4 8.2
2018-Jun-03 11:30N 49°18' W 123°05'3 6.6
2018-Jun-03 10:59N 49°18' W 122°60'2 4.6
2018-Jun-03 10:29N 49°18' W 122°56'2 5.0
2018-Jun-03 09:59N 49°18' W 122°52'0 0.2
2018-Jun-03 09:23N 49°17' W 122°52'0 0.0
2018-Jun-03 08:59N 49°17' W 122°52'0 0.0
2018-Jun-03 07:23N 49°17' W 122°52'0 0.0
2018-Jun-03 06:47N 49°17' W 122°52'0 0.0
2018-Jun-03 06:17N 49°17' W 122°52'0 0.0
2018-Jun-03 05:59N 49°17' W 122°52'0 0.0
2018-Jun-03 05:11N 49°17' W 122°52'0 0.0
2018-Jun-03 04:59N 49°17' W 122°52'0 0.0
2018-Jun-03 04:29N 49°17' W 122°52'0 0.0
2018-Jun-03 03:53N 49°17' W 122°52'0 0.0
2018-Jun-03 03:17N 49°17' W 122°52'0 0.0
2018-Jun-03 01:59N 49°17' W 122°52'0 0.0
2018-Jun-03 01:29N 49°17' W 122°52'0 0.0
2018-Jun-03 00:53N 49°17' W 122°52'0 0.0
2018-Jun-03 00:29N 49°17' W 122°52'0 0.0
2018-Jun-02 23:53N 49°17' W 122°52'0 0.0
2018-Jun-02 23:23N 49°17' W 122°52'0 0.0
2018-Jun-02 22:59N 49°17' W 122°52'0 0.0
2018-Jun-02 22:05N 49°17' W 122°52'0 0.0
2018-Jun-02 21:41N 49°17' W 122°52'0 0.0
2018-Jun-02 21:23N 49°17' W 122°52'0 0.0
2018-Jun-02 19:41N 49°17' W 122°52'0 0.0
2018-Jun-02 19:29N 49°17' W 122°52'0 0.0
2018-Jun-02 18:47N 49°17' W 122°52'0 0.0
2018-Jun-02 18:11N 49°17' W 122°52'0 0.0
2018-Jun-02 17:47N 49°17' W 122°52'0 0.0
2018-Jun-02 15:23N 49°17' W 122°52'0 0.0
2018-Jun-02 13:41N 49°17' W 122°52'0 0.0
2018-Jun-02 13:29N 49°17' W 122°52'0 0.0
2018-Jun-02 12:05N 49°17' W 122°52'0 0.0
2018-Jun-02 11:47N 49°17' W 122°52'0 0.0
2018-Jun-02 11:24N 49°17' W 122°52'0 0.0
2018-Jun-02 11:00N 49°17' W 122°52'1 2.1
2018-Jun-02 10:30N 49°18' W 122°54'4 7.2
2018-Jun-02 10:00N 49°18' W 122°59'3 6.4
2018-Jun-02 09:30N 49°18' W 123°04'3 6.2
2018-Jun-02 09:00N 49°19' W 123°09'3 5.8
2018-Jun-02 08:30N 49°19' W 123°13'3 5.1
2018-Jun-02 08:00N 49°18' W 123°17'3 6.6
2018-Jun-02 07:30N 49°15' W 123°19'510.3
2018-Jun-02 07:00N 49°10' W 123°20'4 8.5
2018-Jun-02 06:30N 49°06' W 123°20'4 8.0
2018-Jun-02 06:00N 49°02' W 123°17'4 9.0
2018-Jun-02 05:30N 48°59' W 123°12'510.3
2018-Jun-02 05:00N 48°56' W 123°06'5 9.8
2018-Jun-02 04:30N 48°52' W 123°02'510.5
2018-Jun-02 03:59N 48°46' W 123°01'714.5
2018-Jun-02 03:30N 48°43' W 123°11'612.3
2018-Jun-02 03:00N 48°37' W 123°13'817.0
2018-Jun-02 02:31N 48°29' W 123°10'714.9
2018-Jun-02 02:01N 48°23' W 123°16'4 8.8
2018-Jun-02 01:30N 48°21' W 123°22'1 2.0
2018-Jun-02 01:00N 48°21' W 123°23'2 3.6
2018-Jun-02 00:30N 48°19' W 123°24'1810.1
2018-Jun-01 22:45N 48°14' W 123°50'312.7
2018-Jun-01 22:30N 48°14' W 123°54'613.1
2018-Jun-01 22:00N 48°16' W 124°03'714.4
2018-Jun-01 21:31N 48°19' W 124°13'713.6
2018-Jun-01 21:00N 48°22' W 124°23'713.2
2018-Jun-01 20:30N 48°25' W 124°31'612.9
2018-Jun-01 20:00N 48°28' W 124°40'612.5
2018-Jun-01 19:30N 48°29' W 124°50'612.8
2018-Jun-01 19:00N 48°28' W 124°59'713.5
2018-Jun-01 18:30N 48°22' W 125°05'714.2
2018-Jun-01 18:00N 48°16' W 125°10'814.6
2018-Jun-01 17:26N 48°09' W 125°16'  
Track history (hours):
 
Tides and Currents Weather Stations Pressure Air Temp Water Temp Dewpoint Dewpoint Depression Visibility Wind Speed Wind Dir Waves Ship Positions

Songa Pride

Last reported at 2018-Jun-11 11:49 UTC. Time now 2018-Jun-20 16:58 UTC.
Position N 48°31' W 126°22'.
Warning: this ship's position is 9 days out of date.

Length 184 m; draft 12.4 m.

Type: Ship. MMSI: 538006302.

Date/timePositionNaut miles runAvg speedWind from/ knotsBaromVisibWave heightAir tempDewpointWater temp
2018-Jun-11 11:49N 48°31' W 126°22'413.0
2018-Jun-11 11:29N 48°31' W 126°16'612.8
2018-Jun-11 11:00N 48°31' W 126°07'612.8
2018-Jun-11 10:30N 48°31' W 125°57'712.9
2018-Jun-11 10:00N 48°31' W 125°47'612.9
2018-Jun-11 09:30N 48°31' W 125°38'712.9
2018-Jun-11 09:00N 48°31' W 125°28'612.7
2018-Jun-11 08:30N 48°31' W 125°18'712.6
2018-Jun-11 07:59N 48°31' W 125°08'612.6
2018-Jun-11 07:30N 48°31' W 124°59'612.9
2018-Jun-11 07:00N 48°31' W 124°49'612.3
2018-Jun-11 06:30N 48°30' W 124°40'612.4
2018-Jun-11 06:00N 48°27' W 124°32'612.4
2018-Jun-11 05:30N 48°25' W 124°23'612.8
2018-Jun-11 05:00N 48°23' W 124°14'612.8
2018-Jun-11 04:30N 48°20' W 124°05'612.6
2018-Jun-11 04:00N 48°18' W 123°56'2310.8
2018-Jun-11 01:54N 48°23' W 123°23'4 9.5
2018-Jun-11 01:30N 48°23' W 123°18'5 9.5
2018-Jun-11 01:00N 48°26' W 123°12'510.7
2018-Jun-11 00:30N 48°31' W 123°13'5 9.9
2018-Jun-10 23:59N 48°37' W 123°14'5 9.9
2018-Jun-10 23:30N 48°41' W 123°15'5 9.5
2018-Jun-10 23:00N 48°44' W 123°09'610.1
2018-Jun-10 22:27N 48°47' W 123°02'5 9.0
2018-Jun-10 21:56N 48°51' W 123°04'511.6
2018-Jun-10 21:29N 48°55' W 123°10'510.8
2018-Jun-10 21:00N 48°58' W 123°16'612.2
2018-Jun-10 20:29N 49°03' W 123°22'612.3
2018-Jun-10 20:00N 49°09' W 123°23'912.3
2018-Jun-10 19:17N 49°17' W 123°19'310.2
2018-Jun-10 18:58N 49°19' W 123°14'2 3.3
2018-Jun-10 18:30N 49°19' W 123°12'3 5.5
2018-Jun-10 18:00N 49°19' W 123°08'4 8.5
2018-Jun-10 17:29N 49°18' W 123°01'2 3.6
2018-Jun-10 17:00N 49°18' W 122°59'0 0.7
2018-Jun-10 16:30N 49°18' W 122°58'0 0.0
2018-Jun-10 15:57N 49°18' W 122°58'0 0.0
2018-Jun-10 15:30N 49°18' W 122°58'0 0.0
2018-Jun-10 15:00N 49°18' W 122°58'0 0.0
2018-Jun-10 14:12N 49°18' W 122°58'0 0.0
2018-Jun-10 13:27N 49°18' W 122°58'0 0.0
2018-Jun-10 13:00N 49°18' W 122°58'0 0.0
2018-Jun-10 12:30N 49°18' W 122°58'0 0.0
2018-Jun-10 12:00N 49°18' W 122°58'0 0.0
2018-Jun-10 11:30N 49°18' W 122°58'0 0.1
2018-Jun-10 11:00N 49°18' W 122°58'0 0.0
2018-Jun-10 10:30N 49°18' W 122°58'0 0.2
2018-Jun-10 10:00N 49°18' W 122°58'0 0.4
2018-Jun-10 09:30N 49°18' W 122°58'1 1.6
2018-Jun-10 09:00N 49°18' W 122°57'2 4.6
2018-Jun-10 08:31N 49°18' W 122°53'1 1.4
2018-Jun-10 07:50N 49°17' W 122°52'0 0.0
2018-Jun-10 07:20N 49°17' W 122°52'0 0.0
2018-Jun-10 06:44N 49°17' W 122°52'0 0.0
2018-Jun-10 06:26N 49°17' W 122°52'0 0.0
2018-Jun-10 05:56N 49°17' W 122°52'0 0.0
2018-Jun-10 05:26N 49°17' W 122°52'0 0.0
2018-Jun-10 04:50N 49°17' W 122°52'0 0.0
2018-Jun-10 04:08N 49°17' W 122°52'0 0.0
2018-Jun-10 03:56N 49°17' W 122°52'0 0.0
2018-Jun-10 03:20N 49°17' W 122°52'0 0.0
2018-Jun-10 01:32N 49°17' W 122°52'0 0.0
2018-Jun-10 01:20N 49°17' W 122°52'0 0.0
2018-Jun-10 00:50N 49°17' W 122°52'0 0.0
2018-Jun-10 00:26N 49°17' W 122°52'0 0.0
2018-Jun-09 23:38N 49°17' W 122°52'0 0.0
2018-Jun-09 23:08N 49°17' W 122°52'0 0.0
2018-Jun-09 22:38N 49°17' W 122°52'0 0.0
2018-Jun-09 22:08N 49°17' W 122°52'0 0.0
2018-Jun-09 21:44N 49°17' W 122°52'0 0.0
2018-Jun-09 21:20N 49°17' W 122°52'0 0.0
2018-Jun-09 20:56N 49°17' W 122°52'0 0.0
2018-Jun-09 20:26N 49°17' W 122°52'0 0.0
2018-Jun-09 19:02N 49°17' W 122°52'0 0.0
2018-Jun-09 18:38N 49°17' W 122°52'0 0.0
2018-Jun-09 18:26N 49°17' W 122°52'0 0.0
2018-Jun-09 17:50N 49°17' W 122°52'0 0.0
2018-Jun-09 17:20N 49°17' W 122°52'0 0.0
2018-Jun-09 16:56N 49°17' W 122°52'0 0.0
2018-Jun-09 16:26N 49°17' W 122°52'0 0.0
2018-Jun-09 14:44N 49°17' W 122°52'0 0.0
2018-Jun-09 14:26N 49°17' W 122°52'0 0.0
2018-Jun-09 13:50N 49°17' W 122°52'0 0.0
2018-Jun-09 13:14N 49°17' W 122°52'0 0.0
2018-Jun-09 12:56N 49°17' W 122°52'0 0.0
2018-Jun-09 11:44N 49°17' W 122°52'0 0.0
2018-Jun-09 11:26N 49°17' W 122°52'0 0.0
2018-Jun-09 10:26N 49°17' W 122°52'0 0.0
2018-Jun-09 09:50N 49°17' W 122°52'0 0.0
2018-Jun-09 09:14N 49°17' W 122°52'0 0.0
2018-Jun-09 08:56N 49°17' W 122°52'0 0.0
2018-Jun-09 08:20N 49°17' W 122°52'0 0.0
2018-Jun-09 07:56N 49°17' W 122°52'0 0.0
2018-Jun-09 07:26N 49°17' W 122°52'0 0.0
2018-Jun-09 06:50N 49°17' W 122°52'0 0.0
2018-Jun-09 06:08N 49°17' W 122°52'0 0.0
2018-Jun-09 05:08N 49°17' W 122°52'0 0.0
2018-Jun-09 04:56N 49°17' W 122°52'0 0.0
2018-Jun-09 04:14N 49°17' W 122°52'0 0.0
2018-Jun-09 03:56N 49°17' W 122°52'0 0.0
2018-Jun-09 03:26N 49°17' W 122°52'0 0.0
2018-Jun-09 02:56N 49°17' W 122°52'0 0.0
2018-Jun-09 02:26N 49°17' W 122°52'0 0.0
2018-Jun-09 01:50N 49°17' W 122°52'0 0.0
2018-Jun-09 01:26N 49°17' W 122°52'0 0.0
2018-Jun-09 00:50N 49°17' W 122°52'0 0.0
2018-Jun-09 00:20N 49°17' W 122°52'0 0.0
2018-Jun-08 23:44N 49°17' W 122°52'0 0.0
2018-Jun-08 23:26N 49°17' W 122°52'0 0.0
2018-Jun-08 22:50N 49°17' W 122°52'0 0.0
2018-Jun-08 20:44N 49°17' W 122°52'0 0.0
2018-Jun-08 20:26N 49°17' W 122°52'0 0.0
2018-Jun-08 19:56N 49°17' W 122°52'0 0.0
2018-Jun-08 19:20N 49°17' W 122°52'0 0.0
2018-Jun-08 18:56N 49°17' W 122°52'0 0.0
2018-Jun-08 18:20N 49°17' W 122°52'0 0.0
2018-Jun-08 17:56N 49°17' W 122°52'0 0.0
2018-Jun-08 17:26N 49°17' W 122°52'0 0.0
2018-Jun-08 16:50N 49°17' W 122°52'0 0.0
2018-Jun-08 16:26N 49°17' W 122°52'0 0.0
2018-Jun-08 15:08N 49°17' W 122°52'0 0.0
2018-Jun-08 14:56N 49°17' W 122°52'0 0.0
2018-Jun-08 14:26N 49°17' W 122°52'0 0.0
2018-Jun-08 13:50N 49°17' W 122°52'0 0.0
2018-Jun-08 13:26N 49°17' W 122°52'0 0.0
2018-Jun-08 12:56N 49°17' W 122°52'0 0.0
2018-Jun-08 11:50N 49°17' W 122°52'0 0.0
2018-Jun-08 11:20N 49°17' W 122°52'0 0.0
2018-Jun-08 10:56N 49°17' W 122°52'0 0.0
2018-Jun-08 10:20N 49°17' W 122°52'0 0.0
2018-Jun-08 09:44N 49°17' W 122°52'0 0.0
2018-Jun-08 09:20N 49°17' W 122°52'0 0.0
2018-Jun-08 08:56N 49°17' W 122°52'0 0.0
2018-Jun-08 08:20N 49°17' W 122°52'0 0.0
2018-Jun-08 07:56N 49°17' W 122°52'0 0.0
2018-Jun-08 06:32N 49°17' W 122°52'0 0.0
2018-Jun-08 06:14N 49°17' W 122°52'0 0.0
2018-Jun-08 04:32N 49°17' W 122°52'0 0.0
2018-Jun-08 04:20N 49°17' W 122°52'0 0.0
2018-Jun-08 03:56N 49°17' W 122°52'0 0.0
2018-Jun-08 03:20N 49°17' W 122°52'0 0.0
2018-Jun-08 02:56N 49°17' W 122°52'0 0.0
2018-Jun-08 02:26N 49°17' W 122°52'0 0.0
2018-Jun-08 01:56N 49°17' W 122°52'0 0.0
2018-Jun-08 01:08N 49°17' W 122°52'0 0.0
2018-Jun-08 00:02N 49°17' W 122°52'0 0.0
2018-Jun-07 23:56N 49°17' W 122°52'0 0.0
2018-Jun-07 21:38N 49°17' W 122°52'0 0.0
2018-Jun-07 21:26N 49°17' W 122°52'0 0.0
2018-Jun-07 20:56N 49°17' W 122°52'0 0.0
2018-Jun-07 20:26N 49°17' W 122°52'0 0.0
2018-Jun-07 19:56N 49°17' W 122°52'0 0.0
2018-Jun-07 19:26N 49°17' W 122°52'0 0.0
2018-Jun-07 18:56N 49°17' W 122°52'0 0.0
2018-Jun-07 18:26N 49°17' W 122°52'0 0.0
2018-Jun-07 17:56N 49°17' W 122°52'0 0.0
2018-Jun-07 17:26N 49°17' W 122°52'0 0.0
2018-Jun-07 16:50N 49°17' W 122°52'0 0.0
2018-Jun-07 16:20N 49°17' W 122°52'0 0.0
2018-Jun-07 15:56N 49°17' W 122°52'0 0.0
2018-Jun-07 15:14N 49°17' W 122°52'0 0.0
2018-Jun-07 14:56N 49°17' W 122°52'0 0.0
2018-Jun-07 14:26N 49°17' W 122°52'0 0.0
2018-Jun-07 13:56N 49°17' W 122°52'0 0.0
2018-Jun-07 13:08N 49°17' W 122°52'0 0.0
2018-Jun-07 12:56N 49°17' W 122°52'0 0.0
2018-Jun-07 12:26N 49°17' W 122°52'0 0.0
2018-Jun-07 11:44N 49°17' W 122°52'0 0.0
2018-Jun-07 11:26N 49°17' W 122°52'0 0.0
2018-Jun-07 10:56N 49°17' W 122°52'0 0.0
2018-Jun-07 10:14N 49°17' W 122°52'0 0.0
2018-Jun-07 09:38N 49°17' W 122°52'0 0.0
2018-Jun-07 09:26N 49°17' W 122°52'0 0.0
2018-Jun-07 09:00N 49°17' W 122°52'2 3.2
2018-Jun-07 08:29N 49°18' W 122°55'4 7.3
2018-Jun-07 08:00N 49°18' W 123°00'3 5.2
2018-Jun-07 07:30N 49°18' W 123°04'4 7.6
2018-Jun-07 07:00N 49°19' W 123°10'3 6.3
2018-Jun-07 06:30N 49°18' W 123°14'3 5.9
2018-Jun-07 06:00N 49°17' W 123°18'4 7.2
2018-Jun-07 05:30N 49°13' W 123°19'4 8.1
2018-Jun-07 05:00N 49°09' W 123°20'610.3
2018-Jun-07 04:27N 49°04' W 123°20'512.3
2018-Jun-07 04:00N 48°60' W 123°14'612.2
2018-Jun-07 03:30N 48°55' W 123°07'714.5
2018-Jun-07 03:00N 48°50' W 123°01'612.9
2018-Jun-07 02:30N 48°44' W 123°06'713.7
2018-Jun-07 02:00N 48°41' W 123°15'714.0
2018-Jun-07 01:30N 48°34' W 123°12'612.9
2018-Jun-07 01:01N 48°28' W 123°10'612.5
2018-Jun-07 00:30N 48°23' W 123°15'510.5
2018-Jun-07 00:00N 48°21' W 123°23'1 0.2
2018-Jun-06 19:42N 48°20' W 123°22'0 1.4
2018-Jun-06 19:22N 48°21' W 123°22'2210.5
2018-Jun-06 17:17N 48°14' W 123°53'413.1
2018-Jun-06 16:57N 48°15' W 123°59'613.4
2018-Jun-06 16:30N 48°17' W 124°07'713.5
2018-Jun-06 16:00N 48°20' W 124°17'713.3
2018-Jun-06 15:30N 48°23' W 124°26'713.3
2018-Jun-06 15:00N 48°26' W 124°35'612.9
2018-Jun-06 14:31N 48°28' W 124°44'713.4
2018-Jun-06 14:00N 48°28' W 124°54'713.2
2018-Jun-06 13:30N 48°24' W 125°02'815.5
2018-Jun-06 13:00N 48°17' W 125°06'1115.0
2018-Jun-06 12:18N 48°08' W 125°13'414.6
2018-Jun-06 12:00N 48°04' W 125°15'7513.6
2018-Jun-06 06:29N 46°49' W 125°25'612.5
2018-Jun-06 06:00N 46°43' W 125°26'612.3
2018-Jun-06 05:30N 46°37' W 125°26'710.3
2018-Jun-06 04:52N 46°30' W 125°26'610.3
2018-Jun-06 04:17N 46°34' W 125°20'4 9.8
2018-Jun-06 03:51N 46°36' W 125°15'310.0
2018-Jun-06 03:30N 46°39' W 125°11'7 9.9
2018-Jun-06 02:50N 46°43' W 125°03'3 9.6
2018-Jun-06 02:30N 46°45' W 125°00'5 9.2
2018-Jun-06 01:59N 46°48' W 124°55'5 9.5
2018-Jun-06 01:30N 46°51' W 124°50'5 9.4
2018-Jun-06 01:00N 46°54' W 124°44'5 9.5
2018-Jun-06 00:30N 46°56' W 124°38'712.6
2018-Jun-05 23:56N 46°55' W 124°28'613.0
2018-Jun-05 23:30N 46°54' W 124°20'510.2
2018-Jun-05 23:01N 46°52' W 124°12'4 7.3
2018-Jun-05 22:30N 46°55' W 124°08'11 0.3
2018-Jun-04 11:51N 46°58' W 123°53'3 7.2
2018-Jun-04 11:29N 46°58' W 123°57'3 7.1
2018-Jun-04 11:00N 46°56' W 124°01'5 9.4
2018-Jun-04 10:30N 46°55' W 124°08'611.1
2018-Jun-04 10:00N 46°53' W 124°15'0 0.9
2018-Jun-04 09:31N 46°53' W 124°16'1 1.9
2018-Jun-04 09:01N 46°54' W 124°16'3 6.9
2018-Jun-04 08:31N 46°54' W 124°21'611.7
2018-Jun-04 08:00N 46°55' W 124°30'611.5
2018-Jun-04 07:30N 46°55' W 124°38'611.4
2018-Jun-04 06:59N 46°56' W 124°47'510.9
2018-Jun-04 06:31N 46°57' W 124°54'611.1
2018-Jun-04 06:00N 47°03' W 124°54'8012.8
2018-Jun-03 23:47N 48°21' W 125°11'412.8
2018-Jun-03 23:28N 48°25' W 125°07'712.5
2018-Jun-03 22:53N 48°31' W 125°01'512.0
2018-Jun-03 22:30N 48°31' W 124°54'713.2
2018-Jun-03 22:00N 48°31' W 124°44'713.4
2018-Jun-03 21:30N 48°28' W 124°35'713.5
2018-Jun-03 21:00N 48°26' W 124°26'814.3
2018-Jun-03 20:28N 48°23' W 124°15'714.4
2018-Jun-03 20:00N 48°20' W 124°06'714.2
2018-Jun-03 19:30N 48°17' W 123°56'714.4
2018-Jun-03 18:59N 48°16' W 123°44'1612.5
2018-Jun-03 17:44N 48°23' W 123°23'2 7.1
2018-Jun-03 17:30N 48°23' W 123°21'612.5
2018-Jun-03 17:00N 48°25' W 123°12'815.5
2018-Jun-03 16:30N 48°33' W 123°13'815.6
2018-Jun-03 16:00N 48°40' W 123°15'712.9
2018-Jun-03 15:26N 48°45' W 123°07'610.4
2018-Jun-03 14:53N 48°50' W 123°02'514.0
2018-Jun-03 14:30N 48°54' W 123°08'713.8
2018-Jun-03 14:00N 48°59' W 123°16'713.8
2018-Jun-03 13:31N 49°03' W 123°23'712.9
2018-Jun-03 13:00N 49°10' W 123°23'714.1
2018-Jun-03 12:30N 49°17' W 123°20'713.0
2018-Jun-03 12:00N 49°19' W 123°11'4 8.2
2018-Jun-03 11:30N 49°18' W 123°05'3 6.6
2018-Jun-03 10:59N 49°18' W 122°60'2 4.6
2018-Jun-03 10:29N 49°18' W 122°56'2 5.0
2018-Jun-03 09:59N 49°18' W 122°52'0 0.2
2018-Jun-03 09:23N 49°17' W 122°52'0 0.0
2018-Jun-03 08:59N 49°17' W 122°52'0 0.0
2018-Jun-03 07:23N 49°17' W 122°52'0 0.0
2018-Jun-03 06:47N 49°17' W 122°52'0 0.0
2018-Jun-03 06:17N 49°17' W 122°52'0 0.0
2018-Jun-03 05:59N 49°17' W 122°52'0 0.0
2018-Jun-03 05:11N 49°17' W 122°52'0 0.0
2018-Jun-03 04:59N 49°17' W 122°52'0 0.0
2018-Jun-03 04:29N 49°17' W 122°52'0 0.0
2018-Jun-03 03:53N 49°17' W 122°52'0 0.0
2018-Jun-03 03:17N 49°17' W 122°52'0 0.0
2018-Jun-03 01:59N 49°17' W 122°52'0 0.0
2018-Jun-03 01:29N 49°17' W 122°52'0 0.0
2018-Jun-03 00:53N 49°17' W 122°52'0 0.0
2018-Jun-03 00:29N 49°17' W 122°52'0 0.0
2018-Jun-02 23:53N 49°17' W 122°52'0 0.0
2018-Jun-02 23:23N 49°17' W 122°52'0 0.0
2018-Jun-02 22:59N 49°17' W 122°52'0 0.0
2018-Jun-02 22:05N 49°17' W 122°52'0 0.0
2018-Jun-02 21:41N 49°17' W 122°52'0 0.0
2018-Jun-02 21:23N 49°17' W 122°52'0 0.0
2018-Jun-02 19:41N 49°17' W 122°52'0 0.0
2018-Jun-02 19:29N 49°17' W 122°52'0 0.0
2018-Jun-02 18:47N 49°17' W 122°52'0 0.0
2018-Jun-02 18:11N 49°17' W 122°52'0 0.0
2018-Jun-02 17:47N 49°17' W 122°52'0 0.0
2018-Jun-02 15:23N 49°17' W 122°52'0 0.0
2018-Jun-02 13:41N 49°17' W 122°52'0 0.0
2018-Jun-02 13:29N 49°17' W 122°52'0 0.0
2018-Jun-02 12:05N 49°17' W 122°52'0 0.0
2018-Jun-02 11:47N 49°17' W 122°52'0 0.0
2018-Jun-02 11:24N 49°17' W 122°52'0 0.0
2018-Jun-02 11:00N 49°17' W 122°52'1 2.1
2018-Jun-02 10:30N 49°18' W 122°54'4 7.2
2018-Jun-02 10:00N 49°18' W 122°59'3 6.4
2018-Jun-02 09:30N 49°18' W 123°04'3 6.2
2018-Jun-02 09:00N 49°19' W 123°09'3 5.8
2018-Jun-02 08:30N 49°19' W 123°13'3 5.1
2018-Jun-02 08:00N 49°18' W 123°17'3 6.6
2018-Jun-02 07:30N 49°15' W 123°19'510.3
2018-Jun-02 07:00N 49°10' W 123°20'4 8.5
2018-Jun-02 06:30N 49°06' W 123°20'4 8.0
2018-Jun-02 06:00N 49°02' W 123°17'4 9.0
2018-Jun-02 05:30N 48°59' W 123°12'510.3
2018-Jun-02 05:00N 48°56' W 123°06'5 9.8
2018-Jun-02 04:30N 48°52' W 123°02'510.5
2018-Jun-02 03:59N 48°46' W 123°01'714.5
2018-Jun-02 03:30N 48°43' W 123°11'612.3
2018-Jun-02 03:00N 48°37' W 123°13'817.0
2018-Jun-02 02:31N 48°29' W 123°10'714.9
2018-Jun-02 02:01N 48°23' W 123°16'4 8.8
2018-Jun-02 01:30N 48°21' W 123°22'1 2.0
2018-Jun-02 01:00N 48°21' W 123°23'2 3.6
2018-Jun-02 00:30N 48°19' W 123°24'1810.1
2018-Jun-01 22:45N 48°14' W 123°50'312.7
2018-Jun-01 22:30N 48°14' W 123°54'613.1
2018-Jun-01 22:00N 48°16' W 124°03'714.4
2018-Jun-01 21:31N 48°19' W 124°13'713.6
2018-Jun-01 21:00N 48°22' W 124°23'713.2
2018-Jun-01 20:30N 48°25' W 124°31'612.9
2018-Jun-01 20:00N 48°28' W 124°40'612.5
2018-Jun-01 19:30N 48°29' W 124°50'612.8
2018-Jun-01 19:00N 48°28' W 124°59'713.5
2018-Jun-01 18:30N 48°22' W 125°05'714.2
2018-Jun-01 18:00N 48°16' W 125°10'814.6
2018-Jun-01 17:26N 48°09' W 125°16'  

Dump ship's entire track history